sensor_id;sensor_type;location;lat;lon;timestamp;P1;durP1;ratioP1;P2;durP2;ratioP2
23101;SDS011;11720;51.214;22.574;2022-08-19T00:01:09;7.45;;;4.35;;
23101;SDS011;11720;51.214;22.574;2022-08-19T00:03:35;5.93;;;4.00;;
23101;SDS011;11720;51.214;22.574;2022-08-19T00:06:00;5.68;;;4.63;;
23101;SDS011;11720;51.214;22.574;2022-08-19T00:08:26;6.25;;;4.15;;
23101;SDS011;11720;51.214;22.574;2022-08-19T00:10:52;7.60;;;4.68;;
23101;SDS011;11720;51.214;22.574;2022-08-19T00:13:17;8.85;;;4.40;;
23101;SDS011;11720;51.214;22.574;2022-08-19T00:15:43;6.40;;;4.55;;
23101;SDS011;11720;51.214;22.574;2022-08-19T00:18:09;7.32;;;4.55;;
23101;SDS011;11720;51.214;22.574;2022-08-19T00:20:35;8.60;;;4.78;;
23101;SDS011;11720;51.214;22.574;2022-08-19T00:23:05;6.10;;;4.25;;
23101;SDS011;11720;51.214;22.574;2022-08-19T00:25:31;5.55;;;4.13;;
23101;SDS011;11720;51.214;22.574;2022-08-19T00:27:56;5.82;;;4.03;;
23101;SDS011;11720;51.214;22.574;2022-08-19T00:30:23;6.57;;;4.35;;
23101;SDS011;11720;51.214;22.574;2022-08-19T00:32:49;8.98;;;5.13;;
23101;SDS011;11720;51.214;22.574;2022-08-19T00:35:15;8.35;;;5.22;;
23101;SDS011;11720;51.214;22.574;2022-08-19T00:37:41;5.85;;;4.70;;
23101;SDS011;11720;51.214;22.574;2022-08-19T00:40:08;6.60;;;4.75;;
23101;SDS011;11720;51.214;22.574;2022-08-19T00:42:35;10.15;;;4.95;;
23101;SDS011;11720;51.214;22.574;2022-08-19T00:45:02;7.25;;;4.57;;
23101;SDS011;11720;51.214;22.574;2022-08-19T00:47:33;7.55;;;4.75;;
23101;SDS011;11720;51.214;22.574;2022-08-19T00:49:59;5.65;;;4.65;;
23101;SDS011;11720;51.214;22.574;2022-08-19T00:52:29;6.82;;;4.63;;
23101;SDS011;11720;51.214;22.574;2022-08-19T00:55:03;5.50;;;3.97;;
23101;SDS011;11720;51.214;22.574;2022-08-19T00:57:35;5.28;;;4.10;;
23101;SDS011;11720;51.214;22.574;2022-08-19T01:00:06;9.27;;;5.03;;
23101;SDS011;11720;51.214;22.574;2022-08-19T01:02:37;6.45;;;4.03;;
23101;SDS011;11720;51.214;22.574;2022-08-19T01:05:06;5.38;;;4.13;;
23101;SDS011;11720;51.214;22.574;2022-08-19T01:07:35;6.68;;;4.32;;
23101;SDS011;11720;51.214;22.574;2022-08-19T01:10:04;8.30;;;4.75;;
23101;SDS011;11720;51.214;22.574;2022-08-19T01:12:32;7.30;;;4.72;;
23101;SDS011;11720;51.214;22.574;2022-08-19T01:14:59;6.05;;;4.32;;
23101;SDS011;11720;51.214;22.574;2022-08-19T01:17:25;7.82;;;5.50;;
23101;SDS011;11720;51.214;22.574;2022-08-19T01:19:50;6.18;;;4.20;;
23101;SDS011;11720;51.214;22.574;2022-08-19T01:24:48;7.45;;;5.18;;
23101;SDS011;11720;51.214;22.574;2022-08-19T01:27:14;7.85;;;4.72;;
23101;SDS011;11720;51.214;22.574;2022-08-19T01:29:42;7.00;;;4.40;;
23101;SDS011;11720;51.214;22.574;2022-08-19T01:32:11;5.57;;;3.95;;
23101;SDS011;11720;51.214;22.574;2022-08-19T01:34:38;6.40;;;5.18;;
23101;SDS011;11720;51.214;22.574;2022-08-19T01:37:08;5.97;;;4.78;;
23101;SDS011;11720;51.214;22.574;2022-08-19T01:39:36;7.25;;;5.35;;
23101;SDS011;11720;51.214;22.574;2022-08-19T01:42:03;6.18;;;4.63;;
23101;SDS011;11720;51.214;22.574;2022-08-19T01:44:29;7.68;;;4.80;;
23101;SDS011;11720;51.214;22.574;2022-08-19T01:46:55;7.35;;;4.55;;
23101;SDS011;11720;51.214;22.574;2022-08-19T01:49:22;8.93;;;5.55;;
23101;SDS011;11720;51.214;22.574;2022-08-19T01:51:51;7.18;;;4.63;;
23101;SDS011;11720;51.214;22.574;2022-08-19T01:54:19;7.60;;;4.88;;
23101;SDS011;11720;51.214;22.574;2022-08-19T01:56:46;7.53;;;4.25;;
23101;SDS011;11720;51.214;22.574;2022-08-19T01:59:14;5.72;;;4.25;;
23101;SDS011;11720;51.214;22.574;2022-08-19T02:01:43;6.22;;;4.30;;
23101;SDS011;11720;51.214;22.574;2022-08-19T02:04:08;7.35;;;4.40;;
23101;SDS011;11720;51.214;22.574;2022-08-19T02:06:34;6.22;;;3.95;;
23101;SDS011;11720;51.214;22.574;2022-08-19T02:09:01;6.05;;;4.25;;
23101;SDS011;11720;51.214;22.574;2022-08-19T02:11:31;4.50;;;3.65;;
23101;SDS011;11720;51.214;22.574;2022-08-19T02:13:58;6.55;;;4.55;;
23101;SDS011;11720;51.214;22.574;2022-08-19T02:16:27;4.70;;;3.85;;
23101;SDS011;11720;51.214;22.574;2022-08-19T02:18:52;10.48;;;4.22;;
23101;SDS011;11720;51.214;22.574;2022-08-19T02:21:20;6.05;;;4.15;;
23101;SDS011;11720;51.214;22.574;2022-08-19T02:23:47;5.93;;;4.10;;
23101;SDS011;11720;51.214;22.574;2022-08-19T02:26:13;7.28;;;4.25;;
23101;SDS011;11720;51.214;22.574;2022-08-19T02:28:40;5.20;;;3.65;;
23101;SDS011;11720;51.214;22.574;2022-08-19T02:31:10;6.22;;;4.53;;
23101;SDS011;11720;51.214;22.574;2022-08-19T02:33:40;6.28;;;4.45;;
23101;SDS011;11720;51.214;22.574;2022-08-19T02:36:07;6.32;;;3.95;;
23101;SDS011;11720;51.214;22.574;2022-08-19T02:38:34;7.40;;;4.28;;
23101;SDS011;11720;51.214;22.574;2022-08-19T02:41:04;7.68;;;4.50;;
23101;SDS011;11720;51.214;22.574;2022-08-19T02:43:35;4.90;;;3.63;;
23101;SDS011;11720;51.214;22.574;2022-08-19T02:46:11;5.15;;;3.58;;
23101;SDS011;11720;51.214;22.574;2022-08-19T02:48:37;7.22;;;4.68;;
23101;SDS011;11720;51.214;22.574;2022-08-19T02:51:03;5.25;;;3.88;;
23101;SDS011;11720;51.214;22.574;2022-08-19T02:53:29;5.28;;;3.90;;
23101;SDS011;11720;51.214;22.574;2022-08-19T02:55:55;7.70;;;3.97;;
23101;SDS011;11720;51.214;22.574;2022-08-19T02:58:21;6.28;;;4.80;;
23101;SDS011;11720;51.214;22.574;2022-08-19T03:00:49;6.60;;;3.75;;
23101;SDS011;11720;51.214;22.574;2022-08-19T03:03:17;7.55;;;4.07;;
23101;SDS011;11720;51.214;22.574;2022-08-19T03:05:44;8.55;;;5.10;;
23101;SDS011;11720;51.214;22.574;2022-08-19T03:08:09;5.97;;;4.65;;
23101;SDS011;11720;51.214;22.574;2022-08-19T03:10:44;4.93;;;3.92;;
23101;SDS011;11720;51.214;22.574;2022-08-19T03:13:14;8.82;;;4.88;;
23101;SDS011;11720;51.214;22.574;2022-08-19T03:15:43;5.82;;;4.22;;
23101;SDS011;11720;51.214;22.574;2022-08-19T03:18:10;8.15;;;5.07;;
23101;SDS011;11720;51.214;22.574;2022-08-19T03:20:42;5.53;;;4.35;;
23101;SDS011;11720;51.214;22.574;2022-08-19T03:23:09;5.95;;;4.55;;
23101;SDS011;11720;51.214;22.574;2022-08-19T03:25:36;5.88;;;4.43;;
23101;SDS011;11720;51.214;22.574;2022-08-19T03:28:03;6.68;;;4.57;;
23101;SDS011;11720;51.214;22.574;2022-08-19T03:30:29;6.75;;;4.72;;
23101;SDS011;11720;51.214;22.574;2022-08-19T03:32:55;7.80;;;4.95;;
23101;SDS011;11720;51.214;22.574;2022-08-19T03:35:20;5.78;;;5.07;;
23101;SDS011;11720;51.214;22.574;2022-08-19T03:37:46;6.53;;;4.85;;
23101;SDS011;11720;51.214;22.574;2022-08-19T03:40:11;6.72;;;5.07;;
23101;SDS011;11720;51.214;22.574;2022-08-19T03:42:37;6.65;;;4.97;;
23101;SDS011;11720;51.214;22.574;2022-08-19T03:45:04;5.45;;;4.38;;
23101;SDS011;11720;51.214;22.574;2022-08-19T03:47:30;6.68;;;4.80;;
23101;SDS011;11720;51.214;22.574;2022-08-19T03:49:55;5.00;;;4.07;;
23101;SDS011;11720;51.214;22.574;2022-08-19T03:52:21;7.50;;;4.70;;
23101;SDS011;11720;51.214;22.574;2022-08-19T03:54:46;6.13;;;4.30;;
23101;SDS011;11720;51.214;22.574;2022-08-19T03:57:12;4.95;;;4.45;;
23101;SDS011;11720;51.214;22.574;2022-08-19T03:59:38;6.93;;;5.18;;
23101;SDS011;11720;51.214;22.574;2022-08-19T04:02:06;9.57;;;4.95;;
23101;SDS011;11720;51.214;22.574;2022-08-19T04:04:35;5.13;;;4.15;;
23101;SDS011;11720;51.214;22.574;2022-08-19T04:07:03;7.82;;;5.32;;
23101;SDS011;11720;51.214;22.574;2022-08-19T04:09:29;5.40;;;4.47;;
23101;SDS011;11720;51.214;22.574;2022-08-19T04:11:55;7.97;;;4.82;;
23101;SDS011;11720;51.214;22.574;2022-08-19T04:14:24;6.18;;;4.22;;
23101;SDS011;11720;51.214;22.574;2022-08-19T04:16:54;6.25;;;4.65;;
23101;SDS011;11720;51.214;22.574;2022-08-19T04:19:21;7.05;;;5.07;;
23101;SDS011;11720;51.214;22.574;2022-08-19T04:21:48;7.82;;;5.00;;
23101;SDS011;11720;51.214;22.574;2022-08-19T04:24:16;7.00;;;3.70;;
23101;SDS011;11720;51.214;22.574;2022-08-19T04:26:42;6.25;;;4.25;;
23101;SDS011;11720;51.214;22.574;2022-08-19T04:29:10;6.45;;;4.50;;
23101;SDS011;11720;51.214;22.574;2022-08-19T04:31:40;6.30;;;4.55;;
23101;SDS011;11720;51.214;22.574;2022-08-19T04:34:09;5.80;;;4.63;;
23101;SDS011;11720;51.214;22.574;2022-08-19T04:36:37;6.35;;;5.00;;
23101;SDS011;11720;51.214;22.574;2022-08-19T04:39:06;8.65;;;5.47;;
23101;SDS011;11720;51.214;22.574;2022-08-19T04:41:35;10.05;;;4.63;;
23101;SDS011;11720;51.214;22.574;2022-08-19T04:44:19;7.57;;;4.82;;
23101;SDS011;11720;51.214;22.574;2022-08-19T04:46:45;6.15;;;4.22;;
23101;SDS011;11720;51.214;22.574;2022-08-19T04:49:15;7.15;;;4.82;;
23101;SDS011;11720;51.214;22.574;2022-08-19T04:51:43;7.68;;;4.97;;
23101;SDS011;11720;51.214;22.574;2022-08-19T04:54:10;7.25;;;4.95;;
23101;SDS011;11720;51.214;22.574;2022-08-19T04:56:36;6.00;;;4.80;;
23101;SDS011;11720;51.214;22.574;2022-08-19T04:59:03;6.68;;;4.53;;
23101;SDS011;11720;51.214;22.574;2022-08-19T05:01:29;7.05;;;4.10;;
23101;SDS011;11720;51.214;22.574;2022-08-19T05:03:57;6.82;;;4.32;;
23101;SDS011;11720;51.214;22.574;2022-08-19T05:06:25;6.15;;;4.30;;
23101;SDS011;11720;51.214;22.574;2022-08-19T05:08:51;5.90;;;4.35;;
23101;SDS011;11720;51.214;22.574;2022-08-19T05:11:18;9.80;;;4.78;;
23101;SDS011;11720;51.214;22.574;2022-08-19T05:13:50;9.93;;;4.45;;
23101;SDS011;11720;51.214;22.574;2022-08-19T05:16:18;5.95;;;4.07;;
23101;SDS011;11720;51.214;22.574;2022-08-19T05:18:45;11.35;;;4.28;;
23101;SDS011;11720;51.214;22.574;2022-08-19T05:21:30;8.05;;;5.03;;
23101;SDS011;11720;51.214;22.574;2022-08-19T05:24:16;6.18;;;4.10;;
23101;SDS011;11720;51.214;22.574;2022-08-19T05:26:45;5.55;;;4.50;;
23101;SDS011;11720;51.214;22.574;2022-08-19T05:29:14;6.68;;;4.72;;
23101;SDS011;11720;51.214;22.574;2022-08-19T05:31:41;4.57;;;3.85;;
23101;SDS011;11720;51.214;22.574;2022-08-19T05:34:07;6.45;;;4.28;;
23101;SDS011;11720;51.214;22.574;2022-08-19T05:36:35;8.75;;;4.57;;
23101;SDS011;11720;51.214;22.574;2022-08-19T05:39:05;6.68;;;4.65;;
23101;SDS011;11720;51.214;22.574;2022-08-19T05:41:32;5.03;;;3.83;;
23101;SDS011;11720;51.214;22.574;2022-08-19T05:43:58;5.60;;;3.67;;
23101;SDS011;11720;51.214;22.574;2022-08-19T05:46:27;5.68;;;3.83;;
23101;SDS011;11720;51.214;22.574;2022-08-19T05:48:53;6.35;;;4.38;;
23101;SDS011;11720;51.214;22.574;2022-08-19T05:51:21;7.93;;;4.88;;
23101;SDS011;11720;51.214;22.574;2022-08-19T05:53:47;6.32;;;4.50;;
23101;SDS011;11720;51.214;22.574;2022-08-19T05:56:15;6.55;;;3.85;;
23101;SDS011;11720;51.214;22.574;2022-08-19T05:58:43;7.68;;;4.82;;
23101;SDS011;11720;51.214;22.574;2022-08-19T06:01:11;7.63;;;4.22;;
23101;SDS011;11720;51.214;22.574;2022-08-19T06:03:39;7.07;;;4.55;;
23101;SDS011;11720;51.214;22.574;2022-08-19T06:06:06;5.60;;;4.40;;
23101;SDS011;11720;51.214;22.574;2022-08-19T06:08:33;7.32;;;4.60;;
23101;SDS011;11720;51.214;22.574;2022-08-19T06:11:11;6.72;;;4.55;;
23101;SDS011;11720;51.214;22.574;2022-08-19T06:13:42;8.70;;;4.43;;
23101;SDS011;11720;51.214;22.574;2022-08-19T06:16:08;9.23;;;4.90;;
23101;SDS011;11720;51.214;22.574;2022-08-19T06:18:34;4.45;;;3.65;;
23101;SDS011;11720;51.214;22.574;2022-08-19T06:21:00;6.72;;;4.30;;
23101;SDS011;11720;51.214;22.574;2022-08-19T06:23:29;6.65;;;4.18;;
23101;SDS011;11720;51.214;22.574;2022-08-19T06:25:55;9.73;;;4.32;;
23101;SDS011;11720;51.214;22.574;2022-08-19T06:28:21;6.03;;;3.63;;
23101;SDS011;11720;51.214;22.574;2022-08-19T06:30:48;6.18;;;4.40;;
23101;SDS011;11720;51.214;22.574;2022-08-19T06:33:15;6.43;;;4.38;;
23101;SDS011;11720;51.214;22.574;2022-08-19T06:35:41;6.13;;;4.15;;
23101;SDS011;11720;51.214;22.574;2022-08-19T06:38:06;6.55;;;3.90;;
23101;SDS011;11720;51.214;22.574;2022-08-19T06:40:33;4.38;;;3.60;;
23101;SDS011;11720;51.214;22.574;2022-08-19T06:42:59;6.03;;;3.90;;
23101;SDS011;11720;51.214;22.574;2022-08-19T06:45:26;5.82;;;3.60;;
23101;SDS011;11720;51.214;22.574;2022-08-19T06:47:52;4.75;;;3.35;;
23101;SDS011;11720;51.214;22.574;2022-08-19T06:50:21;5.97;;;4.30;;
23101;SDS011;11720;51.214;22.574;2022-08-19T06:52:48;5.30;;;3.80;;
23101;SDS011;11720;51.214;22.574;2022-08-19T06:55:14;5.78;;;4.07;;
23101;SDS011;11720;51.214;22.574;2022-08-19T06:57:41;4.22;;;3.20;;
23101;SDS011;11720;51.214;22.574;2022-08-19T07:00:07;5.32;;;3.70;;
23101;SDS011;11720;51.214;22.574;2022-08-19T07:02:40;7.72;;;3.70;;
23101;SDS011;11720;51.214;22.574;2022-08-19T07:05:06;7.72;;;4.07;;
23101;SDS011;11720;51.214;22.574;2022-08-19T07:07:32;5.55;;;3.88;;
23101;SDS011;11720;51.214;22.574;2022-08-19T07:09:59;6.68;;;4.32;;
23101;SDS011;11720;51.214;22.574;2022-08-19T07:12:26;6.22;;;4.45;;
23101;SDS011;11720;51.214;22.574;2022-08-19T07:14:59;5.40;;;3.83;;
23101;SDS011;11720;51.214;22.574;2022-08-19T07:17:26;5.72;;;3.35;;
23101;SDS011;11720;51.214;22.574;2022-08-19T07:19:52;5.13;;;3.28;;
23101;SDS011;11720;51.214;22.574;2022-08-19T07:22:18;5.60;;;3.90;;
23101;SDS011;11720;51.214;22.574;2022-08-19T07:24:45;7.18;;;3.55;;
23101;SDS011;11720;51.214;22.574;2022-08-19T07:27:13;7.88;;;4.20;;
23101;SDS011;11720;51.214;22.574;2022-08-19T07:29:39;6.25;;;3.83;;
23101;SDS011;11720;51.214;22.574;2022-08-19T07:32:05;5.55;;;3.50;;
23101;SDS011;11720;51.214;22.574;2022-08-19T07:34:31;5.25;;;4.13;;
23101;SDS011;11720;51.214;22.574;2022-08-19T07:37:02;3.75;;;3.38;;
23101;SDS011;11720;51.214;22.574;2022-08-19T07:39:32;3.97;;;3.20;;
23101;SDS011;11720;51.214;22.574;2022-08-19T07:42:00;4.60;;;3.55;;
23101;SDS011;11720;51.214;22.574;2022-08-19T07:44:29;7.55;;;3.00;;
23101;SDS011;11720;51.214;22.574;2022-08-19T07:46:55;3.80;;;3.13;;
23101;SDS011;11720;51.214;22.574;2022-08-19T07:49:23;6.97;;;3.50;;
23101;SDS011;11720;51.214;22.574;2022-08-19T07:51:53;4.25;;;2.97;;
23101;SDS011;11720;51.214;22.574;2022-08-19T07:54:27;5.82;;;4.00;;
23101;SDS011;11720;51.214;22.574;2022-08-19T07:56:54;4.72;;;3.30;;
23101;SDS011;11720;51.214;22.574;2022-08-19T07:59:20;6.45;;;4.07;;
23101;SDS011;11720;51.214;22.574;2022-08-19T08:01:47;3.67;;;3.10;;
23101;SDS011;11720;51.214;22.574;2022-08-19T08:04:13;4.00;;;3.05;;
23101;SDS011;11720;51.214;22.574;2022-08-19T08:06:57;4.95;;;3.55;;
23101;SDS011;11720;51.214;22.574;2022-08-19T08:09:42;5.00;;;3.13;;
23101;SDS011;11720;51.214;22.574;2022-08-19T08:12:16;4.70;;;3.35;;
23101;SDS011;11720;51.214;22.574;2022-08-19T08:14:48;4.38;;;3.05;;
23101;SDS011;11720;51.214;22.574;2022-08-19T08:17:17;3.60;;;2.75;;
23101;SDS011;11720;51.214;22.574;2022-08-19T08:19:45;7.22;;;3.05;;
23101;SDS011;11720;51.214;22.574;2022-08-19T08:22:14;3.58;;;2.88;;
23101;SDS011;11720;51.214;22.574;2022-08-19T08:25:01;3.35;;;2.22;;
23101;SDS011;11720;51.214;22.574;2022-08-19T08:27:29;3.25;;;2.70;;
23101;SDS011;11720;51.214;22.574;2022-08-19T08:29:56;4.22;;;3.10;;
23101;SDS011;11720;51.214;22.574;2022-08-19T08:32:22;4.35;;;2.75;;
23101;SDS011;11720;51.214;22.574;2022-08-19T08:34:48;5.38;;;2.70;;
23101;SDS011;11720;51.214;22.574;2022-08-19T08:37:14;3.40;;;2.50;;
23101;SDS011;11720;51.214;22.574;2022-08-19T08:39:39;4.30;;;2.90;;
23101;SDS011;11720;51.214;22.574;2022-08-19T08:45:14;3.42;;;2.28;;
23101;SDS011;11720;51.214;22.574;2022-08-19T08:47:39;2.80;;;2.30;;
23101;SDS011;11720;51.214;22.574;2022-08-19T08:50:32;5.63;;;2.50;;
23101;SDS011;11720;51.214;22.574;2022-08-19T08:53:01;3.88;;;2.20;;
23101;SDS011;11720;51.214;22.574;2022-08-19T08:55:29;5.03;;;2.85;;
23101;SDS011;11720;51.214;22.574;2022-08-19T08:57:59;6.78;;;2.33;;
23101;SDS011;11720;51.214;22.574;2022-08-19T09:00:29;6.03;;;2.45;;
23101;SDS011;11720;51.214;22.574;2022-08-19T09:02:58;4.70;;;2.88;;
23101;SDS011;11720;51.214;22.574;2022-08-19T09:05:35;5.32;;;2.45;;
23101;SDS011;11720;51.214;22.574;2022-08-19T09:11:15;3.70;;;2.38;;
23101;SDS011;11720;51.214;22.574;2022-08-19T09:16:28;7.28;;;2.85;;
23101;SDS011;11720;51.214;22.574;2022-08-19T09:18:56;2.88;;;2.10;;
23101;SDS011;11720;51.214;22.574;2022-08-19T09:21:25;3.40;;;2.28;;
23101;SDS011;11720;51.214;22.574;2022-08-19T09:23:52;9.48;;;2.45;;
23101;SDS011;11720;51.214;22.574;2022-08-19T09:26:20;7.28;;;2.92;;
23101;SDS011;11720;51.214;22.574;2022-08-19T09:28:48;2.63;;;2.28;;
23101;SDS011;11720;51.214;22.574;2022-08-19T09:31:17;5.63;;;2.92;;
23101;SDS011;11720;51.214;22.574;2022-08-19T09:33:45;5.13;;;3.03;;
23101;SDS011;11720;51.214;22.574;2022-08-19T09:36:12;3.88;;;2.85;;
23101;SDS011;11720;51.214;22.574;2022-08-19T09:38:40;2.75;;;2.20;;
23101;SDS011;11720;51.214;22.574;2022-08-19T09:41:07;2.38;;;2.15;;
23101;SDS011;11720;51.214;22.574;2022-08-19T09:43:36;3.80;;;2.85;;
23101;SDS011;11720;51.214;22.574;2022-08-19T09:46:02;4.20;;;2.35;;
23101;SDS011;11720;51.214;22.574;2022-08-19T09:48:31;2.45;;;2.25;;
23101;SDS011;11720;51.214;22.574;2022-08-19T09:51:05;3.58;;;2.55;;
23101;SDS011;11720;51.214;22.574;2022-08-19T09:53:38;3.88;;;1.83;;
23101;SDS011;11720;51.214;22.574;2022-08-19T09:56:04;2.05;;;1.70;;
23101;SDS011;11720;51.214;22.574;2022-08-19T09:58:31;10.32;;;2.13;;
23101;SDS011;11720;51.214;22.574;2022-08-19T10:00:58;3.42;;;2.38;;
23101;SDS011;11720;51.214;22.574;2022-08-19T10:03:24;3.88;;;2.25;;
23101;SDS011;11720;51.214;22.574;2022-08-19T10:05:51;2.30;;;1.98;;
23101;SDS011;11720;51.214;22.574;2022-08-19T10:08:28;2.33;;;1.77;;
23101;SDS011;11720;51.214;22.574;2022-08-19T10:10:56;3.53;;;2.13;;
23101;SDS011;11720;51.214;22.574;2022-08-19T10:13:23;2.58;;;1.58;;
23101;SDS011;11720;51.214;22.574;2022-08-19T10:15:55;2.42;;;1.90;;
23101;SDS011;11720;51.214;22.574;2022-08-19T10:18:26;2.80;;;2.30;;
23101;SDS011;11720;51.214;22.574;2022-08-19T10:20:52;2.97;;;1.83;;
23101;SDS011;11720;51.214;22.574;2022-08-19T10:23:32;2.45;;;2.20;;
23101;SDS011;11720;51.214;22.574;2022-08-19T10:25:59;3.67;;;2.28;;
23101;SDS011;11720;51.214;22.574;2022-08-19T10:28:25;20.52;;;2.92;;
23101;SDS011;11720;51.214;22.574;2022-08-19T10:30:51;2.65;;;2.38;;
23101;SDS011;11720;51.214;22.574;2022-08-19T10:33:17;2.30;;;1.95;;
23101;SDS011;11720;51.214;22.574;2022-08-19T10:35:43;3.55;;;2.45;;
23101;SDS011;11720;51.214;22.574;2022-08-19T10:38:11;4.68;;;2.17;;
23101;SDS011;11720;51.214;22.574;2022-08-19T10:40:37;5.00;;;1.90;;
23101;SDS011;11720;51.214;22.574;2022-08-19T10:43:03;2.78;;;2.25;;
23101;SDS011;11720;51.214;22.574;2022-08-19T10:45:29;2.53;;;2.25;;
23101;SDS011;11720;51.214;22.574;2022-08-19T10:47:54;2.42;;;2.20;;
23101;SDS011;11720;51.214;22.574;2022-08-19T10:50:21;3.70;;;2.22;;
23101;SDS011;11720;51.214;22.574;2022-08-19T10:53:08;4.88;;;1.85;;
23101;SDS011;11720;51.214;22.574;2022-08-19T10:55:33;6.10;;;2.35;;
23101;SDS011;11720;51.214;22.574;2022-08-19T10:58:18;2.58;;;1.90;;
23101;SDS011;11720;51.214;22.574;2022-08-19T11:00:52;5.20;;;1.95;;
23101;SDS011;11720;51.214;22.574;2022-08-19T11:03:18;7.97;;;2.50;;
23101;SDS011;11720;51.214;22.574;2022-08-19T11:05:44;2.53;;;1.92;;
23101;SDS011;11720;51.214;22.574;2022-08-19T11:08:10;5.00;;;3.17;;
23101;SDS011;11720;51.214;22.574;2022-08-19T11:10:36;4.10;;;2.35;;
23101;SDS011;11720;51.214;22.574;2022-08-19T11:13:06;2.33;;;1.98;;
23101;SDS011;11720;51.214;22.574;2022-08-19T11:15:31;3.35;;;2.35;;
23101;SDS011;11720;51.214;22.574;2022-08-19T11:17:58;2.85;;;1.92;;
23101;SDS011;11720;51.214;22.574;2022-08-19T11:20:24;4.60;;;2.45;;
23101;SDS011;11720;51.214;22.574;2022-08-19T11:22:51;2.78;;;2.00;;
23101;SDS011;11720;51.214;22.574;2022-08-19T11:25:18;2.42;;;2.22;;
23101;SDS011;11720;51.214;22.574;2022-08-19T11:27:44;4.32;;;2.00;;
23101;SDS011;11720;51.214;22.574;2022-08-19T11:30:12;5.30;;;1.92;;
23101;SDS011;11720;51.214;22.574;2022-08-19T11:32:41;3.53;;;2.28;;
23101;SDS011;11720;51.214;22.574;2022-08-19T11:35:07;3.35;;;2.17;;
23101;SDS011;11720;51.214;22.574;2022-08-19T11:37:33;3.28;;;2.65;;
23101;SDS011;11720;51.214;22.574;2022-08-19T11:40:03;2.60;;;2.25;;
23101;SDS011;11720;51.214;22.574;2022-08-19T11:42:29;6.60;;;2.20;;
23101;SDS011;11720;51.214;22.574;2022-08-19T11:45:13;3.00;;;2.55;;
23101;SDS011;11720;51.214;22.574;2022-08-19T11:47:39;3.97;;;2.33;;
23101;SDS011;11720;51.214;22.574;2022-08-19T11:50:05;2.65;;;2.25;;
23101;SDS011;11720;51.214;22.574;2022-08-19T11:52:30;3.15;;;2.35;;
23101;SDS011;11720;51.214;22.574;2022-08-19T11:54:56;3.88;;;2.60;;
23101;SDS011;11720;51.214;22.574;2022-08-19T11:57:22;2.90;;;2.20;;
23101;SDS011;11720;51.214;22.574;2022-08-19T11:59:48;4.07;;;2.22;;
23101;SDS011;11720;51.214;22.574;2022-08-19T12:02:15;3.15;;;2.25;;
23101;SDS011;11720;51.214;22.574;2022-08-19T12:04:40;3.70;;;2.22;;
23101;SDS011;11720;51.214;22.574;2022-08-19T12:07:06;2.42;;;2.00;;
23101;SDS011;11720;51.214;22.574;2022-08-19T12:09:32;2.55;;;1.75;;
23101;SDS011;11720;51.214;22.574;2022-08-19T12:11:59;2.60;;;2.20;;
23101;SDS011;11720;51.214;22.574;2022-08-19T12:14:26;4.43;;;2.30;;
23101;SDS011;11720;51.214;22.574;2022-08-19T12:16:55;2.42;;;2.13;;
23101;SDS011;11720;51.214;22.574;2022-08-19T12:19:21;5.60;;;1.90;;
23101;SDS011;11720;51.214;22.574;2022-08-19T12:21:47;2.58;;;2.33;;
23101;SDS011;11720;51.214;22.574;2022-08-19T12:24:12;2.08;;;1.80;;
23101;SDS011;11720;51.214;22.574;2022-08-19T12:26:38;7.15;;;2.58;;
23101;SDS011;11720;51.214;22.574;2022-08-19T12:29:04;3.28;;;2.00;;
23101;SDS011;11720;51.214;22.574;2022-08-19T12:31:29;4.15;;;2.78;;
23101;SDS011;11720;51.214;22.574;2022-08-19T12:33:55;2.60;;;2.40;;
23101;SDS011;11720;51.214;22.574;2022-08-19T12:36:21;2.72;;;2.13;;
23101;SDS011;11720;51.214;22.574;2022-08-19T12:38:48;3.47;;;2.30;;
23101;SDS011;11720;51.214;22.574;2022-08-19T12:41:14;3.22;;;2.25;;
23101;SDS011;11720;51.214;22.574;2022-08-19T12:43:43;3.60;;;2.08;;
23101;SDS011;11720;51.214;22.574;2022-08-19T12:46:09;5.25;;;2.40;;
23101;SDS011;11720;51.214;22.574;2022-08-19T12:48:35;3.08;;;2.20;;
23101;SDS011;11720;51.214;22.574;2022-08-19T12:51:09;6.07;;;2.15;;
23101;SDS011;11720;51.214;22.574;2022-08-19T12:53:37;3.67;;;2.00;;
23101;SDS011;11720;51.214;22.574;2022-08-19T12:56:03;3.28;;;2.30;;
23101;SDS011;11720;51.214;22.574;2022-08-19T12:58:29;3.03;;;2.33;;
23101;SDS011;11720;51.214;22.574;2022-08-19T13:00:56;2.58;;;1.92;;
23101;SDS011;11720;51.214;22.574;2022-08-19T13:03:21;3.58;;;2.28;;
23101;SDS011;11720;51.214;22.574;2022-08-19T13:05:52;4.30;;;3.05;;
23101;SDS011;11720;51.214;22.574;2022-08-19T13:08:17;2.90;;;2.10;;
23101;SDS011;11720;51.214;22.574;2022-08-19T13:10:43;2.70;;;2.05;;
23101;SDS011;11720;51.214;22.574;2022-08-19T13:13:09;3.22;;;2.40;;
23101;SDS011;11720;51.214;22.574;2022-08-19T13:15:35;2.35;;;1.80;;
23101;SDS011;11720;51.214;22.574;2022-08-19T13:18:04;2.40;;;2.03;;
23101;SDS011;11720;51.214;22.574;2022-08-19T13:20:30;3.72;;;2.40;;
23101;SDS011;11720;51.214;22.574;2022-08-19T13:22:56;2.65;;;1.95;;
23101;SDS011;11720;51.214;22.574;2022-08-19T13:25:22;3.60;;;2.13;;
23101;SDS011;11720;51.214;22.574;2022-08-19T13:27:49;3.15;;;2.30;;
23101;SDS011;11720;51.214;22.574;2022-08-19T13:30:16;3.92;;;2.25;;
23101;SDS011;11720;51.214;22.574;2022-08-19T13:33:01;2.92;;;2.45;;
23101;SDS011;11720;51.214;22.574;2022-08-19T13:35:36;2.85;;;2.00;;
23101;SDS011;11720;51.214;22.574;2022-08-19T13:38:02;4.88;;;2.53;;
23101;SDS011;11720;51.214;22.574;2022-08-19T13:40:30;5.38;;;2.35;;
23101;SDS011;11720;51.214;22.574;2022-08-19T13:42:59;3.60;;;2.17;;
23101;SDS011;11720;51.214;22.574;2022-08-19T13:45:26;2.95;;;2.45;;
23101;SDS011;11720;51.214;22.574;2022-08-19T13:47:53;3.53;;;2.47;;
23101;SDS011;11720;51.214;22.574;2022-08-19T13:50:25;4.43;;;2.47;;
23101;SDS011;11720;51.214;22.574;2022-08-19T13:52:53;2.63;;;2.13;;
23101;SDS011;11720;51.214;22.574;2022-08-19T13:55:19;2.75;;;2.13;;
23101;SDS011;11720;51.214;22.574;2022-08-19T13:57:50;3.00;;;1.92;;
23101;SDS011;11720;51.214;22.574;2022-08-19T14:00:20;3.13;;;2.50;;
23101;SDS011;11720;51.214;22.574;2022-08-19T14:02:46;4.40;;;2.78;;
23101;SDS011;11720;51.214;22.574;2022-08-19T14:05:15;2.78;;;2.30;;
23101;SDS011;11720;51.214;22.574;2022-08-19T14:07:41;4.82;;;2.20;;
23101;SDS011;11720;51.214;22.574;2022-08-19T14:10:08;3.30;;;2.40;;
23101;SDS011;11720;51.214;22.574;2022-08-19T14:12:35;2.10;;;1.70;;
23101;SDS011;11720;51.214;22.574;2022-08-19T14:15:02;4.82;;;1.85;;
23101;SDS011;11720;51.214;22.574;2022-08-19T14:17:29;3.55;;;2.28;;
23101;SDS011;11720;51.214;22.574;2022-08-19T14:19:58;5.30;;;2.15;;
23101;SDS011;11720;51.214;22.574;2022-08-19T14:22:32;5.57;;;2.63;;
23101;SDS011;11720;51.214;22.574;2022-08-19T14:24:58;3.00;;;2.28;;
23101;SDS011;11720;51.214;22.574;2022-08-19T14:27:24;3.25;;;2.30;;
23101;SDS011;11720;51.214;22.574;2022-08-19T14:29:50;4.97;;;2.50;;
23101;SDS011;11720;51.214;22.574;2022-08-19T14:32:16;2.50;;;1.63;;
23101;SDS011;11720;51.214;22.574;2022-08-19T14:34:42;3.38;;;2.65;;
23101;SDS011;11720;51.214;22.574;2022-08-19T14:37:11;4.80;;;2.38;;
23101;SDS011;11720;51.214;22.574;2022-08-19T14:39:39;3.00;;;2.10;;
23101;SDS011;11720;51.214;22.574;2022-08-19T14:42:09;3.33;;;2.00;;
23101;SDS011;11720;51.214;22.574;2022-08-19T14:44:35;3.95;;;2.50;;
23101;SDS011;11720;51.214;22.574;2022-08-19T14:47:01;2.22;;;2.00;;
23101;SDS011;11720;51.214;22.574;2022-08-19T14:49:27;2.60;;;1.85;;